sensor_id;sensor_type;location;lat;lon;timestamp;P1;durP1;ratioP1;P2;durP2;ratioP2
37115;SDS011;23025;41.996;23.098;2023-03-31T00:01:40;3.80;;;3.60;;
37115;SDS011;23025;41.996;23.098;2023-03-31T00:04:10;4.20;;;4.00;;
37115;SDS011;23025;41.996;23.098;2023-03-31T00:06:38;3.85;;;3.65;;
37115;SDS011;23025;41.996;23.098;2023-03-31T00:09:06;5.13;;;4.88;;
37115;SDS011;23025;41.996;23.098;2023-03-31T00:11:33;2.95;;;2.85;;
37115;SDS011;23025;41.996;23.098;2023-03-31T00:13:59;3.50;;;3.30;;
37115;SDS011;23025;41.996;23.098;2023-03-31T00:16:27;4.22;;;4.03;;
37115;SDS011;23025;41.996;23.098;2023-03-31T00:18:55;3.03;;;2.92;;
37115;SDS011;23025;41.996;23.098;2023-03-31T00:21:23;3.78;;;3.60;;
37115;SDS011;23025;41.996;23.098;2023-03-31T00:23:49;2.97;;;2.88;;
37115;SDS011;23025;41.996;23.098;2023-03-31T00:26:16;3.92;;;3.78;;
37115;SDS011;23025;41.996;23.098;2023-03-31T00:28:42;7.45;;;7.15;;
37115;SDS011;23025;41.996;23.098;2023-03-31T00:31:09;5.25;;;4.95;;
37115;SDS011;23025;41.996;23.098;2023-03-31T00:33:37;3.45;;;3.30;;
37115;SDS011;23025;41.996;23.098;2023-03-31T00:36:03;3.55;;;3.35;;
37115;SDS011;23025;41.996;23.098;2023-03-31T00:38:30;3.33;;;3.22;;
37115;SDS011;23025;41.996;23.098;2023-03-31T00:40:57;3.70;;;3.50;;
37115;SDS011;23025;41.996;23.098;2023-03-31T00:43:26;3.33;;;3.17;;
37115;SDS011;23025;41.996;23.098;2023-03-31T00:45:54;3.88;;;3.67;;
37115;SDS011;23025;41.996;23.098;2023-03-31T00:48:21;3.63;;;3.45;;
37115;SDS011;23025;41.996;23.098;2023-03-31T00:50:51;3.92;;;3.72;;
37115;SDS011;23025;41.996;23.098;2023-03-31T00:53:19;5.10;;;4.90;;
37115;SDS011;23025;41.996;23.098;2023-03-31T00:55:50;3.10;;;3.00;;
37115;SDS011;23025;41.996;23.098;2023-03-31T00:58:18;4.53;;;4.22;;
37115;SDS011;23025;41.996;23.098;2023-03-31T01:00:46;4.63;;;4.43;;
37115;SDS011;23025;41.996;23.098;2023-03-31T01:03:13;4.28;;;4.07;;
37115;SDS011;23025;41.996;23.098;2023-03-31T01:05:42;2.95;;;2.78;;
37115;SDS011;23025;41.996;23.098;2023-03-31T01:08:11;4.65;;;4.45;;
37115;SDS011;23025;41.996;23.098;2023-03-31T01:10:39;4.50;;;4.30;;
37115;SDS011;23025;41.996;23.098;2023-03-31T01:13:07;4.10;;;3.90;;
37115;SDS011;23025;41.996;23.098;2023-03-31T01:15:34;3.83;;;3.60;;
37115;SDS011;23025;41.996;23.098;2023-03-31T01:18:01;4.18;;;3.97;;
37115;SDS011;23025;41.996;23.098;2023-03-31T01:20:29;3.97;;;3.78;;
37115;SDS011;23025;41.996;23.098;2023-03-31T01:23:11;3.13;;;2.92;;
37115;SDS011;23025;41.996;23.098;2023-03-31T01:25:50;3.80;;;3.50;;
37115;SDS011;23025;41.996;23.098;2023-03-31T01:28:22;3.40;;;3.28;;
37115;SDS011;23025;41.996;23.098;2023-03-31T01:31:08;3.78;;;3.53;;
37115;SDS011;23025;41.996;23.098;2023-03-31T01:33:52;3.92;;;3.72;;
37115;SDS011;23025;41.996;23.098;2023-03-31T01:36:42;3.97;;;3.78;;
37115;SDS011;23025;41.996;23.098;2023-03-31T01:39:27;4.38;;;4.18;;
37115;SDS011;23025;41.996;23.098;2023-03-31T01:42:01;4.88;;;4.68;;
37115;SDS011;23025;41.996;23.098;2023-03-31T01:44:32;3.72;;;3.63;;
37115;SDS011;23025;41.996;23.098;2023-03-31T01:47:05;3.90;;;3.72;;
37115;SDS011;23025;41.996;23.098;2023-03-31T01:49:33;5.18;;;4.80;;
37115;SDS011;23025;41.996;23.098;2023-03-31T01:52:05;4.35;;;4.15;;
37115;SDS011;23025;41.996;23.098;2023-03-31T01:54:35;4.57;;;4.38;;
37115;SDS011;23025;41.996;23.098;2023-03-31T01:57:07;2.53;;;2.42;;
37115;SDS011;23025;41.996;23.098;2023-03-31T01:59:37;11.25;;;10.82;;
37115;SDS011;23025;41.996;23.098;2023-03-31T02:02:05;3.83;;;3.63;;
37115;SDS011;23025;41.996;23.098;2023-03-31T02:04:32;3.60;;;3.47;;
37115;SDS011;23025;41.996;23.098;2023-03-31T02:07:02;3.72;;;3.53;;
37115;SDS011;23025;41.996;23.098;2023-03-31T02:09:32;2.28;;;2.17;;
37115;SDS011;23025;41.996;23.098;2023-03-31T02:12:00;4.63;;;4.32;;
37115;SDS011;23025;41.996;23.098;2023-03-31T02:14:29;4.68;;;4.47;;
37115;SDS011;23025;41.996;23.098;2023-03-31T02:16:57;4.03;;;3.83;;
37115;SDS011;23025;41.996;23.098;2023-03-31T02:19:27;7.07;;;6.78;;
37115;SDS011;23025;41.996;23.098;2023-03-31T02:21:55;8.13;;;7.75;;
37115;SDS011;23025;41.996;23.098;2023-03-31T02:24:23;3.75;;;3.63;;
37115;SDS011;23025;41.996;23.098;2023-03-31T02:26:52;2.95;;;2.85;;
37115;SDS011;23025;41.996;23.098;2023-03-31T02:29:19;4.20;;;4.00;;
37115;SDS011;23025;41.996;23.098;2023-03-31T02:31:48;4.35;;;4.15;;
37115;SDS011;23025;41.996;23.098;2023-03-31T02:34:17;3.38;;;3.17;;
37115;SDS011;23025;41.996;23.098;2023-03-31T02:36:44;4.15;;;3.95;;
37115;SDS011;23025;41.996;23.098;2023-03-31T02:39:12;3.58;;;3.42;;
37115;SDS011;23025;41.996;23.098;2023-03-31T02:41:40;3.47;;;3.30;;
37115;SDS011;23025;41.996;23.098;2023-03-31T02:44:07;4.30;;;4.10;;
37115;SDS011;23025;41.996;23.098;2023-03-31T02:46:33;9.25;;;8.93;;
37115;SDS011;23025;41.996;23.098;2023-03-31T02:49:02;3.63;;;3.45;;
37115;SDS011;23025;41.996;23.098;2023-03-31T02:54:27;2.85;;;2.75;;
37115;SDS011;23025;41.996;23.098;2023-03-31T02:57:13;3.53;;;3.40;;
37115;SDS011;23025;41.996;23.098;2023-03-31T02:59:46;7.00;;;6.70;;
37115;SDS011;23025;41.996;23.098;2023-03-31T03:04:47;5.25;;;5.05;;
37115;SDS011;23025;41.996;23.098;2023-03-31T03:07:18;3.85;;;3.70;;
37115;SDS011;23025;41.996;23.098;2023-03-31T03:09:51;4.07;;;3.88;;
37115;SDS011;23025;41.996;23.098;2023-03-31T03:14:46;5.35;;;5.13;;
37115;SDS011;23025;41.996;23.098;2023-03-31T03:17:14;4.90;;;4.65;;
37115;SDS011;23025;41.996;23.098;2023-03-31T03:19:42;3.35;;;3.25;;
37115;SDS011;23025;41.996;23.098;2023-03-31T03:22:10;6.30;;;6.03;;
37115;SDS011;23025;41.996;23.098;2023-03-31T03:24:36;5.35;;;5.15;;
37115;SDS011;23025;41.996;23.098;2023-03-31T03:27:03;3.72;;;3.53;;
37115;SDS011;23025;41.996;23.098;2023-03-31T03:29:30;5.53;;;5.28;;
37115;SDS011;23025;41.996;23.098;2023-03-31T03:31:56;3.28;;;3.17;;
37115;SDS011;23025;41.996;23.098;2023-03-31T03:34:23;5.10;;;4.90;;
37115;SDS011;23025;41.996;23.098;2023-03-31T03:36:51;3.78;;;3.67;;
37115;SDS011;23025;41.996;23.098;2023-03-31T03:39:19;3.53;;;3.42;;
37115;SDS011;23025;41.996;23.098;2023-03-31T03:41:45;2.45;;;2.35;;
37115;SDS011;23025;41.996;23.098;2023-03-31T03:44:12;3.42;;;3.22;;
37115;SDS011;23025;41.996;23.098;2023-03-31T03:46:38;3.78;;;3.58;;
37115;SDS011;23025;41.996;23.098;2023-03-31T03:49:05;3.05;;;2.95;;
37115;SDS011;23025;41.996;23.098;2023-03-31T03:51:32;2.72;;;2.63;;
37115;SDS011;23025;41.996;23.098;2023-03-31T03:53:58;3.65;;;3.28;;
37115;SDS011;23025;41.996;23.098;2023-03-31T03:56:26;3.28;;;3.17;;
37115;SDS011;23025;41.996;23.098;2023-03-31T03:58:53;3.58;;;3.47;;
37115;SDS011;23025;41.996;23.098;2023-03-31T04:01:19;6.47;;;6.18;;
37115;SDS011;23025;41.996;23.098;2023-03-31T04:03:46;3.47;;;3.35;;
37115;SDS011;23025;41.996;23.098;2023-03-31T04:06:13;2.85;;;2.75;;
37115;SDS011;23025;41.996;23.098;2023-03-31T04:08:39;3.53;;;3.33;;
37115;SDS011;23025;41.996;23.098;2023-03-31T04:11:09;3.85;;;2.92;;
37115;SDS011;23025;41.996;23.098;2023-03-31T04:13:38;2.83;;;2.63;;
37115;SDS011;23025;41.996;23.098;2023-03-31T04:16:05;2.60;;;2.50;;
37115;SDS011;23025;41.996;23.098;2023-03-31T04:18:32;3.13;;;3.03;;
37115;SDS011;23025;41.996;23.098;2023-03-31T04:21:01;3.40;;;3.20;;
37115;SDS011;23025;41.996;23.098;2023-03-31T04:23:29;2.72;;;2.63;;
37115;SDS011;23025;41.996;23.098;2023-03-31T04:25:55;3.22;;;3.13;;
37115;SDS011;23025;41.996;23.098;2023-03-31T04:28:22;3.22;;;3.08;;
37115;SDS011;23025;41.996;23.098;2023-03-31T04:30:52;4.05;;;3.75;;
37115;SDS011;23025;41.996;23.098;2023-03-31T04:33:22;4.25;;;4.05;;
37115;SDS011;23025;41.996;23.098;2023-03-31T04:35:49;7.97;;;7.65;;
37115;SDS011;23025;41.996;23.098;2023-03-31T04:38:16;8.52;;;8.23;;
37115;SDS011;23025;41.996;23.098;2023-03-31T04:40:44;6.95;;;4.10;;
37115;SDS011;23025;41.996;23.098;2023-03-31T04:43:11;2.30;;;2.10;;
37115;SDS011;23025;41.996;23.098;2023-03-31T04:45:37;2.92;;;2.83;;
37115;SDS011;23025;41.996;23.098;2023-03-31T04:48:06;3.55;;;3.45;;
37115;SDS011;23025;41.996;23.098;2023-03-31T04:50:32;3.63;;;3.40;;
37115;SDS011;23025;41.996;23.098;2023-03-31T04:52:59;4.57;;;4.38;;
37115;SDS011;23025;41.996;23.098;2023-03-31T04:55:25;4.72;;;4.47;;
37115;SDS011;23025;41.996;23.098;2023-03-31T04:57:52;3.95;;;3.75;;
37115;SDS011;23025;41.996;23.098;2023-03-31T05:00:20;5.93;;;5.63;;
37115;SDS011;23025;41.996;23.098;2023-03-31T05:02:47;3.47;;;3.28;;
37115;SDS011;23025;41.996;23.098;2023-03-31T05:05:15;4.70;;;4.50;;
37115;SDS011;23025;41.996;23.098;2023-03-31T05:07:42;4.20;;;4.00;;
37115;SDS011;23025;41.996;23.098;2023-03-31T05:10:09;3.50;;;3.30;;
37115;SDS011;23025;41.996;23.098;2023-03-31T05:12:36;3.40;;;3.15;;
37115;SDS011;23025;41.996;23.098;2023-03-31T05:15:03;3.17;;;2.97;;
37115;SDS011;23025;41.996;23.098;2023-03-31T05:17:30;3.97;;;3.67;;
37115;SDS011;23025;41.996;23.098;2023-03-31T05:19:56;4.55;;;4.32;;
37115;SDS011;23025;41.996;23.098;2023-03-31T05:22:25;4.10;;;3.75;;
37115;SDS011;23025;41.996;23.098;2023-03-31T05:24:51;3.88;;;3.67;;
37115;SDS011;23025;41.996;23.098;2023-03-31T05:27:18;3.72;;;3.53;;
37115;SDS011;23025;41.996;23.098;2023-03-31T05:29:46;3.53;;;3.33;;
37115;SDS011;23025;41.996;23.098;2023-03-31T05:32:12;6.82;;;6.53;;
37115;SDS011;23025;41.996;23.098;2023-03-31T05:34:38;4.38;;;4.10;;
37115;SDS011;23025;41.996;23.098;2023-03-31T05:37:07;4.68;;;4.47;;
37115;SDS011;23025;41.996;23.098;2023-03-31T05:39:35;3.70;;;3.50;;
37115;SDS011;23025;41.996;23.098;2023-03-31T05:42:01;4.63;;;4.32;;
37115;SDS011;23025;41.996;23.098;2023-03-31T05:44:30;4.85;;;4.55;;
37115;SDS011;23025;41.996;23.098;2023-03-31T05:46:58;4.43;;;4.22;;
37115;SDS011;23025;41.996;23.098;2023-03-31T05:49:27;4.35;;;4.15;;
37115;SDS011;23025;41.996;23.098;2023-03-31T05:51:54;4.88;;;4.47;;
37115;SDS011;23025;41.996;23.098;2023-03-31T05:54:21;4.72;;;4.43;;
37115;SDS011;23025;41.996;23.098;2023-03-31T05:56:49;4.40;;;4.20;;
37115;SDS011;23025;41.996;23.098;2023-03-31T05:59:16;4.10;;;3.90;;
37115;SDS011;23025;41.996;23.098;2023-03-31T06:01:57;3.83;;;3.63;;
37115;SDS011;23025;41.996;23.098;2023-03-31T06:04:23;3.58;;;3.40;;
37115;SDS011;23025;41.996;23.098;2023-03-31T06:06:50;3.15;;;3.05;;
37115;SDS011;23025;41.996;23.098;2023-03-31T06:09:18;3.92;;;3.72;;
37115;SDS011;23025;41.996;23.098;2023-03-31T06:11:45;4.07;;;3.78;;
37115;SDS011;23025;41.996;23.098;2023-03-31T06:14:13;3.67;;;3.47;;
37115;SDS011;23025;41.996;23.098;2023-03-31T06:16:39;3.38;;;3.28;;
37115;SDS011;23025;41.996;23.098;2023-03-31T06:19:06;5.20;;;4.95;;
37115;SDS011;23025;41.996;23.098;2023-03-31T06:21:32;3.47;;;3.30;;
37115;SDS011;23025;41.996;23.098;2023-03-31T06:23:59;2.95;;;2.85;;
37115;SDS011;23025;41.996;23.098;2023-03-31T06:26:26;3.85;;;3.72;;
37115;SDS011;23025;41.996;23.098;2023-03-31T06:28:52;3.30;;;3.20;;
37115;SDS011;23025;41.996;23.098;2023-03-31T06:31:22;2.90;;;2.80;;
37115;SDS011;23025;41.996;23.098;2023-03-31T06:33:49;4.15;;;3.85;;
37115;SDS011;23025;41.996;23.098;2023-03-31T06:36:16;4.40;;;4.20;;
37115;SDS011;23025;41.996;23.098;2023-03-31T06:38:43;3.28;;;3.17;;
37115;SDS011;23025;41.996;23.098;2023-03-31T06:41:10;4.38;;;4.18;;
37115;SDS011;23025;41.996;23.098;2023-03-31T06:43:37;4.68;;;4.38;;
37115;SDS011;23025;41.996;23.098;2023-03-31T06:46:04;4.05;;;3.88;;
37115;SDS011;23025;41.996;23.098;2023-03-31T06:48:33;4.10;;;3.90;;
37115;SDS011;23025;41.996;23.098;2023-03-31T06:50:59;4.38;;;4.07;;
37115;SDS011;23025;41.996;23.098;2023-03-31T06:53:26;3.60;;;3.42;;
37115;SDS011;23025;41.996;23.098;2023-03-31T06:55:53;3.88;;;3.72;;
37115;SDS011;23025;41.996;23.098;2023-03-31T06:58:19;4.18;;;3.97;;
37115;SDS011;23025;41.996;23.098;2023-03-31T07:00:46;6.38;;;6.07;;
37115;SDS011;23025;41.996;23.098;2023-03-31T07:03:13;4.63;;;4.43;;
37115;SDS011;23025;41.996;23.098;2023-03-31T07:05:42;5.75;;;5.53;;
37115;SDS011;23025;41.996;23.098;2023-03-31T07:08:13;5.30;;;5.00;;
37115;SDS011;23025;41.996;23.098;2023-03-31T07:10:41;5.80;;;5.40;;
37115;SDS011;23025;41.996;23.098;2023-03-31T07:13:10;6.72;;;6.43;;
37115;SDS011;23025;41.996;23.098;2023-03-31T07:15:37;6.45;;;6.15;;
37115;SDS011;23025;41.996;23.098;2023-03-31T07:18:03;16.10;;;15.50;;
37115;SDS011;23025;41.996;23.098;2023-03-31T07:20:30;5.53;;;5.22;;
37115;SDS011;23025;41.996;23.098;2023-03-31T07:22:59;7.70;;;7.40;;
37115;SDS011;23025;41.996;23.098;2023-03-31T07:25:28;7.35;;;7.05;;
37115;SDS011;23025;41.996;23.098;2023-03-31T07:27:55;9.02;;;8.65;;
37115;SDS011;23025;41.996;23.098;2023-03-31T07:30:21;7.28;;;6.97;;
37115;SDS011;23025;41.996;23.098;2023-03-31T07:32:49;9.88;;;9.48;;
37115;SDS011;23025;41.996;23.098;2023-03-31T07:35:16;7.57;;;7.25;;
37115;SDS011;23025;41.996;23.098;2023-03-31T07:37:43;9.20;;;8.80;;
37115;SDS011;23025;41.996;23.098;2023-03-31T07:40:13;10.63;;;10.23;;
37115;SDS011;23025;41.996;23.098;2023-03-31T07:42:41;9.95;;;9.55;;
37115;SDS011;23025;41.996;23.098;2023-03-31T07:45:08;7.88;;;7.53;;
37115;SDS011;23025;41.996;23.098;2023-03-31T07:47:35;9.90;;;9.50;;
37115;SDS011;23025;41.996;23.098;2023-03-31T07:50:02;10.35;;;9.85;;
37115;SDS011;23025;41.996;23.098;2023-03-31T07:52:29;8.75;;;8.15;;
37115;SDS011;23025;41.996;23.098;2023-03-31T07:54:56;10.13;;;9.63;;
37115;SDS011;23025;41.996;23.098;2023-03-31T07:57:24;8.82;;;8.43;;
37115;SDS011;23025;41.996;23.098;2023-03-31T07:59:50;26.02;;;25.00;;
37115;SDS011;23025;41.996;23.098;2023-03-31T08:02:17;23.20;;;22.15;;
37115;SDS011;23025;41.996;23.098;2023-03-31T08:04:43;11.25;;;10.75;;
37115;SDS011;23025;41.996;23.098;2023-03-31T08:07:10;12.32;;;11.80;;
37115;SDS011;23025;41.996;23.098;2023-03-31T08:09:37;12.95;;;12.35;;
37115;SDS011;23025;41.996;23.098;2023-03-31T08:12:04;9.48;;;9.07;;
37115;SDS011;23025;41.996;23.098;2023-03-31T08:14:33;16.83;;;16.20;;
37115;SDS011;23025;41.996;23.098;2023-03-31T08:16:59;14.40;;;13.80;;
37115;SDS011;23025;41.996;23.098;2023-03-31T08:19:26;11.70;;;11.20;;
37115;SDS011;23025;41.996;23.098;2023-03-31T08:21:52;12.13;;;11.32;;
37115;SDS011;23025;41.996;23.098;2023-03-31T08:24:19;13.25;;;12.70;;
37115;SDS011;23025;41.996;23.098;2023-03-31T08:26:46;9.23;;;8.80;;
37115;SDS011;23025;41.996;23.098;2023-03-31T08:29:12;11.48;;;10.88;;
37115;SDS011;23025;41.996;23.098;2023-03-31T08:31:40;10.73;;;10.23;;
37115;SDS011;23025;41.996;23.098;2023-03-31T08:34:07;13.68;;;13.07;;
37115;SDS011;23025;41.996;23.098;2023-03-31T08:36:34;13.57;;;12.95;;
37115;SDS011;23025;41.996;23.098;2023-03-31T08:39:01;12.15;;;11.50;;
37115;SDS011;23025;41.996;23.098;2023-03-31T08:41:35;14.13;;;13.52;;
37115;SDS011;23025;41.996;23.098;2023-03-31T08:44:03;13.15;;;12.55;;
37115;SDS011;23025;41.996;23.098;2023-03-31T08:46:32;13.18;;;12.57;;
37115;SDS011;23025;41.996;23.098;2023-03-31T08:49:01;14.77;;;14.10;;
37115;SDS011;23025;41.996;23.098;2023-03-31T08:51:29;13.85;;;13.10;;
37115;SDS011;23025;41.996;23.098;2023-03-31T08:53:58;15.93;;;15.23;;
37115;SDS011;23025;41.996;23.098;2023-03-31T08:56:27;16.50;;;15.80;;
37115;SDS011;23025;41.996;23.098;2023-03-31T08:58:55;12.73;;;12.23;;
37115;SDS011;23025;41.996;23.098;2023-03-31T09:01:28;13.20;;;12.50;;
37115;SDS011;23025;41.996;23.098;2023-03-31T09:04:04;16.63;;;15.98;;
37115;SDS011;23025;41.996;23.098;2023-03-31T09:06:34;15.35;;;14.65;;
37115;SDS011;23025;41.996;23.098;2023-03-31T09:09:02;15.52;;;14.80;;
37115;SDS011;23025;41.996;23.098;2023-03-31T09:14:17;15.70;;;15.00;;
37115;SDS011;23025;41.996;23.098;2023-03-31T09:16:47;18.90;;;18.20;;
37115;SDS011;23025;41.996;23.098;2023-03-31T09:19:18;15.43;;;14.82;;
37115;SDS011;23025;41.996;23.098;2023-03-31T09:21:47;15.90;;;15.25;;
37115;SDS011;23025;41.996;23.098;2023-03-31T09:24:16;13.70;;;13.20;;
37115;SDS011;23025;41.996;23.098;2023-03-31T09:26:44;28.30;;;27.23;;
37115;SDS011;23025;41.996;23.098;2023-03-31T09:29:13;24.67;;;23.73;;
37115;SDS011;23025;41.996;23.098;2023-03-31T09:31:43;12.57;;;12.10;;
37115;SDS011;23025;41.996;23.098;2023-03-31T09:34:12;13.80;;;13.20;;
37115;SDS011;23025;41.996;23.098;2023-03-31T09:36:40;11.50;;;11.07;;
37115;SDS011;23025;41.996;23.098;2023-03-31T09:39:08;12.68;;;12.05;;
37115;SDS011;23025;41.996;23.098;2023-03-31T09:41:35;13.95;;;13.25;;
37115;SDS011;23025;41.996;23.098;2023-03-31T09:44:02;11.50;;;11.10;;
37115;SDS011;23025;41.996;23.098;2023-03-31T09:46:30;15.43;;;14.80;;
37115;SDS011;23025;41.996;23.098;2023-03-31T09:48:57;16.23;;;15.63;;
37115;SDS011;23025;41.996;23.098;2023-03-31T09:51:27;32.97;;;29.60;;
37115;SDS011;23025;41.996;23.098;2023-03-31T09:53:57;15.55;;;14.95;;
37115;SDS011;23025;41.996;23.098;2023-03-31T09:56:33;19.35;;;18.50;;
37115;SDS011;23025;41.996;23.098;2023-03-31T09:59:00;18.40;;;17.70;;
37115;SDS011;23025;41.996;23.098;2023-03-31T10:01:27;24.95;;;23.55;;
37115;SDS011;23025;41.996;23.098;2023-03-31T10:03:54;23.88;;;22.92;;
37115;SDS011;23025;41.996;23.098;2023-03-31T10:06:22;43.08;;;41.47;;
37115;SDS011;23025;41.996;23.098;2023-03-31T10:08:50;23.10;;;22.25;;
37115;SDS011;23025;41.996;23.098;2023-03-31T10:11:18;20.92;;;20.13;;
37115;SDS011;23025;41.996;23.098;2023-03-31T10:13:46;24.98;;;23.70;;
37115;SDS011;23025;41.996;23.098;2023-03-31T10:16:14;23.52;;;22.55;;
37115;SDS011;23025;41.996;23.098;2023-03-31T10:18:46;21.13;;;20.33;;
37115;SDS011;23025;41.996;23.098;2023-03-31T10:21:23;23.50;;;22.58;;
37115;SDS011;23025;41.996;23.098;2023-03-31T10:23:50;20.85;;;20.05;;
37115;SDS011;23025;41.996;23.098;2023-03-31T10:26:18;22.73;;;21.83;;
37115;SDS011;23025;41.996;23.098;2023-03-31T10:28:46;30.77;;;29.52;;
37115;SDS011;23025;41.996;23.098;2023-03-31T10:31:14;30.65;;;29.55;;
37115;SDS011;23025;41.996;23.098;2023-03-31T10:33:41;25.08;;;24.15;;
37115;SDS011;23025;41.996;23.098;2023-03-31T10:36:13;30.58;;;29.45;;
37115;SDS011;23025;41.996;23.098;2023-03-31T10:38:41;48.85;;;47.00;;
37115;SDS011;23025;41.996;23.098;2023-03-31T10:41:09;27.15;;;26.10;;
37115;SDS011;23025;41.996;23.098;2023-03-31T10:43:38;25.45;;;24.55;;
37115;SDS011;23025;41.996;23.098;2023-03-31T10:46:06;23.38;;;22.52;;
37115;SDS011;23025;41.996;23.098;2023-03-31T10:48:33;27.02;;;26.02;;
37115;SDS011;23025;41.996;23.098;2023-03-31T10:51:03;46.40;;;44.75;;
37115;SDS011;23025;41.996;23.098;2023-03-31T10:53:31;27.52;;;26.45;;
37115;SDS011;23025;41.996;23.098;2023-03-31T10:56:07;20.15;;;19.38;;
37115;SDS011;23025;41.996;23.098;2023-03-31T10:58:41;25.98;;;24.95;;
37115;SDS011;23025;41.996;23.098;2023-03-31T11:01:13;26.17;;;25.25;;
37115;SDS011;23025;41.996;23.098;2023-03-31T11:03:53;26.48;;;25.48;;
37115;SDS011;23025;41.996;23.098;2023-03-31T11:06:21;25.33;;;24.25;;
37115;SDS011;23025;41.996;23.098;2023-03-31T11:08:51;23.85;;;22.92;;
37115;SDS011;23025;41.996;23.098;2023-03-31T11:11:27;27.35;;;26.35;;
37115;SDS011;23025;41.996;23.098;2023-03-31T11:13:58;22.90;;;21.95;;
37115;SDS011;23025;41.996;23.098;2023-03-31T11:19:07;25.75;;;24.83;;
37115;SDS011;23025;41.996;23.098;2023-03-31T11:21:40;34.97;;;33.60;;
37115;SDS011;23025;41.996;23.098;2023-03-31T11:24:14;27.25;;;26.25;;
37115;SDS011;23025;41.996;23.098;2023-03-31T11:26:43;27.42;;;26.40;;
37115;SDS011;23025;41.996;23.098;2023-03-31T11:29:16;51.20;;;49.13;;
37115;SDS011;23025;41.996;23.098;2023-03-31T11:31:47;28.33;;;27.20;;
37115;SDS011;23025;41.996;23.098;2023-03-31T11:34:39;29.48;;;28.38;;
37115;SDS011;23025;41.996;23.098;2023-03-31T11:37:14;28.20;;;27.15;;
37115;SDS011;23025;41.996;23.098;2023-03-31T11:45:17;34.85;;;33.63;;
37115;SDS011;23025;41.996;23.098;2023-03-31T11:47:45;52.70;;;50.88;;
37115;SDS011;23025;41.996;23.098;2023-03-31T11:50:12;32.70;;;31.40;;
37115;SDS011;23025;41.996;23.098;2023-03-31T11:52:41;36.05;;;34.65;;
37115;SDS011;23025;41.996;23.098;2023-03-31T11:55:11;33.13;;;31.80;;
37115;SDS011;23025;41.996;23.098;2023-03-31T11:57:40;32.75;;;31.50;;
37115;SDS011;23025;41.996;23.098;2023-03-31T12:00:09;29.90;;;28.80;;
37115;SDS011;23025;41.996;23.098;2023-03-31T12:02:43;30.52;;;29.35;;
37115;SDS011;23025;41.996;23.098;2023-03-31T12:05:11;34.00;;;32.60;;
37115;SDS011;23025;41.996;23.098;2023-03-31T12:07:40;25.48;;;24.52;;
37115;SDS011;23025;41.996;23.098;2023-03-31T12:10:11;25.23;;;24.05;;
37115;SDS011;23025;41.996;23.098;2023-03-31T12:12:41;31.75;;;30.50;;
37115;SDS011;23025;41.996;23.098;2023-03-31T12:15:11;26.67;;;25.67;;
37115;SDS011;23025;41.996;23.098;2023-03-31T12:17:41;26.25;;;25.25;;
37115;SDS011;23025;41.996;23.098;2023-03-31T12:20:11;27.98;;;26.95;;
37115;SDS011;23025;41.996;23.098;2023-03-31T12:22:40;24.75;;;23.83;;
37115;SDS011;23025;41.996;23.098;2023-03-31T12:25:10;31.55;;;30.33;;
37115;SDS011;23025;41.996;23.098;2023-03-31T12:27:37;27.27;;;26.23;;
37115;SDS011;23025;41.996;23.098;2023-03-31T12:30:06;27.55;;;26.33;;
37115;SDS011;23025;41.996;23.098;2023-03-31T12:32:35;28.27;;;27.17;;
37115;SDS011;23025;41.996;23.098;2023-03-31T12:35:06;26.90;;;25.90;;
37115;SDS011;23025;41.996;23.098;2023-03-31T12:37:54;50.53;;;48.50;;
37115;SDS011;23025;41.996;23.098;2023-03-31T12:40:29;28.27;;;27.17;;
37115;SDS011;23025;41.996;23.098;2023-03-31T12:43:06;27.17;;;26.17;;
37115;SDS011;23025;41.996;23.098;2023-03-31T12:45:35;26.02;;;25.02;;
37115;SDS011;23025;41.996;23.098;2023-03-31T12:50:52;32.05;;;30.90;;
37115;SDS011;23025;41.996;23.098;2023-03-31T13:11:13;26.95;;;25.42;;
37115;SDS011;23025;41.996;23.098;2023-03-31T13:13:41;27.08;;;26.00;;
37115;SDS011;23025;41.996;23.098;2023-03-31T13:16:10;29.45;;;27.70;;
37115;SDS011;23025;41.996;23.098;2023-03-31T13:18:36;21.17;;;20.38;;
37115;SDS011;23025;41.996;23.098;2023-03-31T13:21:07;23.48;;;22.58;;
37115;SDS011;23025;41.996;23.098;2023-03-31T13:23:36;24.88;;;23.98;;
37115;SDS011;23025;41.996;23.098;2023-03-31T13:34:38;41.72;;;39.67;;
37115;SDS011;23025;41.996;23.098;2023-03-31T13:42:22;38.80;;;37.40;;
37115;SDS011;23025;41.996;23.098;2023-03-31T13:45:02;43.60;;;42.10;;
37115;SDS011;23025;41.996;23.098;2023-03-31T13:47:48;42.60;;;41.00;;
37115;SDS011;23025;41.996;23.098;2023-03-31T13:53:06;38.00;;;36.42;;
37115;SDS011;23025;41.996;23.098;2023-03-31T14:03:46;45.17;;;43.53;;
37115;SDS011;23025;41.996;23.098;2023-03-31T14:06:19;47.05;;;45.40;;
37115;SDS011;23025;41.996;23.098;2023-03-31T14:08:50;51.80;;;49.95;;
37115;SDS011;23025;41.996;23.098;2023-03-31T14:11:20;31.95;;;30.83;;
37115;SDS011;23025;41.996;23.098;2023-03-31T14:13:57;42.03;;;40.50;;
37115;SDS011;23025;41.996;23.098;2023-03-31T14:16:24;46.97;;;45.20;;
37115;SDS011;23025;41.996;23.098;2023-03-31T14:18:50;44.50;;;42.78;;
37115;SDS011;23025;41.996;23.098;2023-03-31T14:21:20;43.58;;;41.90;;
37115;SDS011;23025;41.996;23.098;2023-03-31T14:23:54;51.15;;;48.97;;
37115;SDS011;23025;41.996;23.098;2023-03-31T14:26:29;52.58;;;50.67;;
37115;SDS011;23025;41.996;23.098;2023-03-31T14:29:01;44.10;;;42.50;;
37115;SDS011;23025;41.996;23.098;2023-03-31T14:31:36;42.95;;;41.35;;
37115;SDS011;23025;41.996;23.098;2023-03-31T14:34:18;47.38;;;45.42;;
37115;SDS011;23025;41.996;23.098;2023-03-31T14:36:50;43.42;;;41.85;;
37115;SDS011;23025;41.996;23.098;2023-03-31T14:39:24;53.40;;;51.35;;
37115;SDS011;23025;41.996;23.098;2023-03-31T14:41:52;51.13;;;49.10;;
37115;SDS011;23025;41.996;23.098;2023-03-31T14:44:19;49.95;;;48.15;;
37115;SDS011;23025;41.996;23.098;2023-03-31T14:46:46;45.45;;;43.70;;
37115;SDS011;23025;41.996;23.098;2023-03-31T14:49:17;45.08;;;43.28;;
37115;SDS011;23025;41.996;23.098;2023-03-31T14:51:44;39.50;;;38.00;;
37115;SDS011;23025;41.996;23.098;2023-03-31T14:54:14;42.28;;;40.70;;
37115;SDS011;23025;41.996;23.098;2023-03-31T14:56:43;43.05;;;41.47;;
37115;SDS011;23025;41.996;23.098;2023-03-31T14:59:12;45.75;;;44.15;;
37115;SDS011;23025;41.996;23.098;2023-03-31T15:01:42;44.88;;;43.28;;
37115;SDS011;23025;41.996;23.098;2023-03-31T15:04:12;48.10;;;46.33;;
37115;SDS011;23025;41.996;23.098;2023-03-31T15:06:40;31.13;;;29.95;;
37115;SDS011;23025;41.996;23.098;2023-03-31T15:09:08;47.53;;;45.83;;
37115;SDS011;23025;41.996;23.098;2023-03-31T15:11:38;49.47;;;47.70;;
37115;SDS011;23025;41.996;23.098;2023-03-31T15:14:07;50.13;;;48.35;;
37115;SDS011;23025;41.996;23.098;2023-03-31T15:16:35;39.72;;;38.17;;
37115;SDS011;23025;41.996;23.098;2023-03-31T15:19:09;40.63;;;39.17;;
37115;SDS011;23025;41.996;23.098;2023-03-31T15:21:37;45.97;;;44.20;;
37115;SDS011;23025;41.996;23.098;2023-03-31T15:24:04;42.92;;;41.42;;
37115;SDS011;23025;41.996;23.098;2023-03-31T15:26:31;48.60;;;46.80;;
37115;SDS011;23025;41.996;23.098;2023-03-31T15:29:00;51.55;;;49.58;;
37115;SDS011;23025;41.996;23.098;2023-03-31T15:31:29;48.92;;;47.22;;
37115;SDS011;23025;41.996;23.098;2023-03-31T15:33:56;49.22;;;47.50;;
37115;SDS011;23025;41.996;23.098;2023-03-31T15:36:23;48.92;;;47.20;;
37115;SDS011;23025;41.996;23.098;2023-03-31T15:38:53;44.20;;;42.67;;